createdAt,value
2022-08-24T00:00:26.298Z,52.36
2022-08-24T00:02:53.104Z,53.11
2022-08-24T00:05:21.333Z,52.56
2022-08-24T00:07:49.957Z,52.79
2022-08-24T00:10:18.293Z,52.79
2022-08-24T00:12:45.023Z,53.33
2022-08-24T00:15:14.009Z,52.95
2022-08-24T00:17:40.640Z,52.56
2022-08-24T00:20:09.129Z,53.30
2022-08-24T00:22:35.941Z,52.88
2022-08-24T00:25:03.828Z,52.38
2022-08-24T00:27:30.424Z,52.77
2022-08-24T00:29:57.039Z,53.08
2022-08-24T00:32:23.668Z,52.66
2022-08-24T00:34:58.757Z,52.62
2022-08-24T00:37:28.616Z,52.23
2022-08-24T00:39:56.286Z,51.93
2022-08-24T00:42:23.574Z,52.39
2022-08-24T00:44:50.676Z,52.53
2022-08-24T00:47:23.310Z,52.24
2022-08-24T00:50:25.343Z,52.82
2022-08-24T00:52:57.992Z,52.12
2022-08-24T00:55:34.067Z,52.25
2022-08-24T00:58:11.174Z,52.60
2022-08-24T01:01:02.546Z,52.47
2022-08-24T01:03:30.135Z,51.74
2022-08-24T01:05:58.019Z,51.90
2022-08-24T01:08:24.974Z,52.58
2022-08-24T01:11:12.023Z,52.33
2022-08-24T01:13:43.632Z,53.12
2022-08-24T01:16:11.811Z,52.83
2022-08-24T01:18:51.193Z,53.87
2022-08-24T01:21:38.048Z,53.33
2022-08-24T01:24:11.435Z,53.60
2022-08-24T01:26:50.063Z,54.54
2022-08-24T01:29:23.696Z,54.15
2022-08-24T01:31:51.410Z,54.22
2022-08-24T01:34:18.180Z,54.35
2022-08-24T01:36:56.724Z,54.50
2022-08-24T01:39:30.272Z,54.68
2022-08-24T01:41:58.311Z,54.79
2022-08-24T01:44:26.857Z,54.68
2022-08-24T01:46:56.184Z,55.13
2022-08-24T01:49:35.995Z,55.15
2022-08-24T01:52:04.339Z,55.61
2022-08-24T01:54:31.302Z,56.11
2022-08-24T01:56:59.371Z,55.82
2022-08-24T01:59:26.984Z,56.36
2022-08-24T02:01:59.039Z,55.90
2022-08-24T02:04:25.740Z,55.75
2022-08-24T02:06:53.814Z,56.54
2022-08-24T02:09:21.069Z,56.16
2022-08-24T02:11:48.840Z,56.46
2022-08-24T02:14:16.060Z,56.15
2022-08-24T02:16:43.117Z,56.60
2022-08-24T02:19:09.897Z,56.56
2022-08-24T02:21:37.280Z,56.55
2022-08-24T02:24:05.095Z,56.56
2022-08-24T02:26:32.011Z,56.19
2022-08-24T02:28:59.324Z,56.06
2022-08-24T02:31:31.230Z,56.13
2022-08-24T02:33:57.983Z,55.88
2022-08-24T02:36:26.388Z,55.38
2022-08-24T02:38:57.615Z,55.51
2022-08-24T02:41:25.490Z,55.81
2022-08-24T02:43:53.334Z,56.47
2022-08-24T02:46:22.556Z,57.02
2022-08-24T02:48:56.461Z,56.75
2022-08-24T02:51:44.092Z,56.76
2022-08-24T02:54:18.554Z,56.61
2022-08-24T02:56:47.410Z,56.61
2022-08-24T02:59:15.349Z,56.65
2022-08-24T03:01:42.439Z,56.69
2022-08-24T03:04:09.703Z,57.22
2022-08-24T03:06:36.859Z,58.35
2022-08-24T03:09:03.924Z,58.09
2022-08-24T03:11:30.851Z,57.33
2022-08-24T03:13:59.065Z,57.30
2022-08-24T03:16:27.703Z,57.93
2022-08-24T03:18:55.162Z,57.64
2022-08-24T03:21:22.419Z,57.76
2022-08-24T03:23:49.602Z,57.96
2022-08-24T03:26:16.466Z,58.52
2022-08-24T03:28:44.686Z,58.62
2022-08-24T03:31:13.155Z,58.54
2022-08-24T03:33:40.255Z,59.41
2022-08-24T03:36:12.329Z,59.87
2022-08-24T03:38:41.436Z,59.94
2022-08-24T03:41:08.086Z,59.08
2022-08-24T03:43:47.278Z,58.98
2022-08-24T03:46:20.449Z,59.92
2022-08-24T03:48:48.685Z,60.34
2022-08-24T03:51:24.111Z,59.50
2022-08-24T03:53:52.368Z,60.40
2022-08-24T03:56:22.002Z,60.76
2022-08-24T03:58:49.596Z,60.92
2022-08-24T04:01:17.608Z,60.91
2022-08-24T04:03:46.603Z,60.49
2022-08-24T04:06:16.089Z,61.14
2022-08-24T04:08:43.338Z,60.26
2022-08-24T04:11:16.704Z,60.50
2022-08-24T04:13:45.261Z,60.36
2022-08-24T04:16:14.391Z,59.95
2022-08-24T04:18:43.112Z,60.00
2022-08-24T04:21:22.769Z,60.26
2022-08-24T04:23:50.365Z,60.73
2022-08-24T04:26:25.653Z,60.27
2022-08-24T04:29:11.709Z,60.12
2022-08-24T04:31:45.594Z,61.06
2022-08-24T04:34:15.691Z,60.88
2022-08-24T04:36:43.598Z,60.54
2022-08-24T04:39:10.674Z,61.01
2022-08-24T04:42:03.188Z,61.41
2022-08-24T04:44:33.997Z,61.38
2022-08-24T04:47:01.361Z,61.09
2022-08-24T04:49:28.746Z,60.70
2022-08-24T04:51:56.027Z,60.46
2022-08-24T04:54:22.591Z,60.14
2022-08-24T04:57:01.386Z,59.44
2022-08-24T04:59:28.230Z,59.69
2022-08-24T05:01:54.931Z,60.00
2022-08-24T05:04:21.577Z,60.64
2022-08-24T05:06:48.531Z,59.05
2022-08-24T05:09:20.722Z,58.52
2022-08-24T05:11:49.918Z,56.13
2022-08-24T05:14:22.901Z,54.00
2022-08-24T05:16:53.236Z,52.63
2022-08-24T05:19:21.653Z,50.21
2022-08-24T05:21:48.825Z,48.67
2022-08-24T05:24:15.759Z,47.55
2022-08-24T05:26:42.372Z,46.53
2022-08-24T05:29:10.764Z,45.82
2022-08-24T05:31:44.718Z,45.28
2022-08-24T05:34:13.918Z,44.99
2022-08-24T05:36:42.615Z,43.60
2022-08-24T05:39:33.595Z,42.86
2022-08-24T05:42:06.275Z,42.69
2022-08-24T05:44:35.530Z,41.88
2022-08-24T05:47:02.990Z,41.39
2022-08-24T05:49:31.048Z,41.16
2022-08-24T05:51:58.859Z,41.32
2022-08-24T05:54:26.866Z,41.70
2022-08-24T05:57:04.541Z,40.74
2022-08-24T05:59:36.641Z,39.46
2022-08-24T06:02:09.872Z,39.56
2022-08-24T06:04:38.179Z,39.21
2022-08-24T06:07:09.130Z,38.60
2022-08-24T06:09:39.729Z,38.77
2022-08-24T06:12:07.084Z,38.61
2022-08-24T06:14:36.137Z,38.57
2022-08-24T06:17:09.397Z,38.67
2022-08-24T06:19:37.376Z,38.33
2022-08-24T06:22:04.478Z,38.63
2022-08-24T06:24:55.428Z,38.56
2022-08-24T06:27:22.510Z,38.78
2022-08-24T06:29:57.446Z,38.06
2022-08-24T06:32:46.748Z,37.62
2022-08-24T06:35:27.826Z,37.09
2022-08-24T06:37:56.520Z,37.29
2022-08-24T06:40:25.824Z,36.73
2022-08-24T06:42:53.453Z,37.30
2022-08-24T06:45:29.685Z,37.39
2022-08-24T06:47:57.220Z,37.62
2022-08-24T06:50:25.228Z,37.26
2022-08-24T06:52:52.140Z,36.98
2022-08-24T06:55:18.919Z,37.07
2022-08-24T06:57:50.344Z,36.76
2022-08-24T07:00:19.682Z,36.87
2022-08-24T07:02:47.695Z,36.11
2022-08-24T07:05:14.642Z,35.69
2022-08-24T07:08:10.912Z,35.53
2022-08-24T07:10:37.852Z,35.35
2022-08-24T07:13:04.841Z,34.82
2022-08-24T07:15:31.905Z,34.94
2022-08-24T07:18:18.352Z,33.95
2022-08-24T07:20:49.140Z,34.30
2022-08-24T07:23:34.584Z,34.13
2022-08-24T07:26:15.128Z,34.24
2022-08-24T07:28:52.300Z,34.34
2022-08-24T07:31:21.036Z,34.56
2022-08-24T07:33:55.818Z,34.06
2022-08-24T07:36:23.009Z,35.36
2022-08-24T07:38:52.300Z,35.37
2022-08-24T07:41:47.158Z,34.87
2022-08-24T07:44:09.139Z,34.68
2022-08-24T07:46:36.043Z,35.30
2022-08-24T07:49:12.556Z,35.10
2022-08-24T07:51:48.398Z,34.80
2022-08-24T07:54:15.810Z,34.40
2022-08-24T07:56:43.889Z,33.91
2022-08-24T07:59:13.320Z,33.22
2022-08-24T08:01:41.432Z,33.51
2022-08-24T08:04:10.279Z,33.08
2022-08-24T08:06:37.426Z,33.04
2022-08-24T08:09:06.010Z,33.50
2022-08-24T08:11:33.090Z,34.28
2022-08-24T08:13:59.947Z,35.21
2022-08-24T08:16:27.448Z,35.17
2022-08-24T08:19:09.335Z,34.63
2022-08-24T08:22:19.314Z,34.86
2022-08-24T08:25:14.819Z,35.37
2022-08-24T08:30:09.563Z,35.15
2022-08-24T08:50:13.490Z,37.38
2022-08-24T09:08:39.106Z,35.81
2022-08-24T09:12:20.485Z,35.33
2022-08-24T09:16:42.231Z,36.79
2022-08-24T09:19:58.288Z,37.20
2022-08-24T09:23:10.944Z,36.54
2022-08-24T09:26:19.077Z,36.29
2022-08-24T09:29:15.276Z,36.52
2022-08-24T09:32:23.528Z,35.91
2022-08-24T09:35:48.228Z,37.07
2022-08-24T09:38:52.463Z,37.25
2022-08-24T09:42:14.467Z,37.15
2022-08-24T09:45:28.849Z,37.48
2022-08-24T09:48:28.247Z,38.46
2022-08-24T09:51:43.414Z,37.44
2022-08-24T09:54:55.971Z,37.36
2022-08-24T10:02:43.184Z,37.00
2022-08-24T10:06:13.184Z,36.42
2022-08-24T10:09:56.935Z,36.44
2022-08-24T10:12:56.396Z,36.97
2022-08-24T10:16:48.492Z,36.76
2022-08-24T10:24:18.760Z,36.06
2022-08-24T10:32:05.342Z,34.93
2022-08-24T10:35:33.502Z,35.41
2022-08-24T10:47:14.730Z,35.13
2022-08-24T10:57:08.188Z,35.48
2022-08-24T11:00:01.388Z,34.46
2022-08-24T11:02:34.113Z,35.05
2022-08-24T11:05:05.787Z,34.91
2022-08-24T11:07:32.981Z,34.68
2022-08-24T11:10:01.832Z,34.37
2022-08-24T11:12:32.615Z,34.97
2022-08-24T11:15:03.417Z,34.01
2022-08-24T11:17:32.610Z,34.24
2022-08-24T11:19:59.517Z,34.31
2022-08-24T11:22:36.823Z,33.47
2022-08-24T11:25:27.983Z,33.48
2022-08-24T11:28:03.291Z,32.98
2022-08-24T11:30:30.882Z,33.04
2022-08-24T11:33:00.512Z,33.32
2022-08-24T11:35:39.920Z,32.40
2022-08-24T11:38:13.946Z,33.32
2022-08-24T11:40:43.143Z,32.63
2022-08-24T11:43:34.535Z,32.97
2022-08-24T11:46:16.589Z,32.68
2022-08-24T11:49:11.108Z,32.52
2022-08-24T11:51:38.265Z,33.37
2022-08-24T11:54:19.381Z,34.04
2022-08-24T11:57:09.488Z,34.29
2022-08-24T12:00:16.115Z,33.35
2022-08-24T12:03:24.039Z,33.25
2022-08-24T12:06:01.462Z,33.63
2022-08-24T12:08:52.315Z,33.34
2022-08-24T12:11:43.123Z,32.85
2022-08-24T12:14:35.940Z,33.31
2022-08-24T12:17:10.622Z,33.30
2022-08-24T12:19:46.068Z,33.77
2022-08-24T12:22:15.240Z,33.25
2022-08-24T12:25:27.895Z,33.03
2022-08-24T12:27:55.572Z,33.07
2022-08-24T12:30:22.280Z,33.30
2022-08-24T12:32:53.918Z,33.48
2022-08-24T12:35:53.561Z,33.37
2022-08-24T12:38:33.620Z,33.04
2022-08-24T12:41:24.065Z,32.85
2022-08-24T12:44:03.744Z,33.23
2022-08-24T12:46:31.239Z,33.66
2022-08-24T12:49:22.631Z,33.59
2022-08-24T12:51:49.193Z,32.29
2022-08-24T12:54:51.278Z,32.81
2022-08-24T12:57:54.136Z,32.96
2022-08-24T13:00:46.978Z,33.24
2022-08-24T13:03:31.628Z,32.41
2022-08-24T13:06:03.427Z,32.16
2022-08-24T13:08:43.038Z,32.67
2022-08-24T13:11:34.257Z,33.10
2022-08-24T13:14:03.874Z,32.93
2022-08-24T13:16:57.612Z,32.51
2022-08-24T13:19:28.691Z,32.73
2022-08-24T13:21:58.575Z,32.82
2022-08-24T13:24:28.263Z,32.66
2022-08-24T13:27:15.840Z,32.65
2022-08-24T13:29:53.808Z,32.80
2022-08-24T13:32:53.638Z,33.12
2022-08-24T13:35:36.615Z,32.79
2022-08-24T13:38:31.351Z,34.12
2022-08-24T13:41:06.403Z,33.55
2022-08-24T13:43:40.369Z,32.94
2022-08-24T13:46:18.045Z,32.73
2022-08-24T13:49:17.627Z,33.92
2022-08-24T13:52:08.561Z,32.77
2022-08-24T13:55:00.674Z,32.56
2022-08-24T13:57:37.023Z,32.84
2022-08-24T14:00:13.915Z,33.13
2022-08-24T14:03:19.295Z,33.70
2022-08-24T14:05:48.387Z,33.76
2022-08-24T14:08:53.352Z,32.75
2022-08-24T14:11:53.716Z,33.04
2022-08-24T14:14:58.461Z,32.79
2022-08-24T14:17:54.068Z,33.06
2022-08-24T14:20:53.051Z,32.69
2022-08-24T14:23:34.606Z,33.05
2022-08-24T14:26:36.770Z,33.02
2022-08-24T14:29:15.347Z,33.35
2022-08-24T14:32:08.648Z,33.46
2022-08-24T14:35:09.866Z,33.22
2022-08-24T14:38:14.422Z,33.53
2022-08-24T14:41:10.227Z,33.94
2022-08-24T14:44:06.200Z,33.62
2022-08-24T14:46:43.435Z,33.97
2022-08-24T14:49:40.915Z,34.01
2022-08-24T14:52:39.453Z,33.97
2022-08-24T14:55:18.023Z,34.15
2022-08-24T14:57:57.805Z,34.31
2022-08-24T15:00:34.536Z,34.26
2022-08-24T15:03:22.428Z,34.07
2022-08-24T15:06:26.371Z,34.53
2022-08-24T15:09:05.126Z,34.26
2022-08-24T15:11:35.936Z,33.97
2022-08-24T15:14:07.255Z,34.23
2022-08-24T15:16:53.321Z,34.19
2022-08-24T15:19:22.903Z,34.90
2022-08-24T15:22:04.185Z,34.83
2022-08-24T15:24:47.090Z,34.67
2022-08-24T15:27:19.985Z,34.15
2022-08-24T15:29:59.339Z,34.83
2022-08-24T15:32:43.605Z,34.35
2022-08-24T15:35:27.431Z,34.00
2022-08-24T15:37:55.494Z,33.84
2022-08-24T15:40:30.947Z,33.71
2022-08-24T15:43:03.186Z,34.02
2022-08-24T15:45:32.377Z,34.53
2022-08-24T15:48:00.272Z,34.29
2022-08-24T15:50:43.302Z,34.58
2022-08-24T15:53:40.205Z,34.29
2022-08-24T15:56:35.724Z,34.16
2022-08-24T15:59:11.394Z,34.34
2022-08-24T16:02:07.294Z,34.59
2022-08-24T16:04:46.891Z,34.98
2022-08-24T16:07:23.652Z,35.03
2022-08-24T16:10:11.532Z,34.81
2022-08-24T16:12:38.799Z,35.61
2022-08-24T16:15:17.038Z,35.53
2022-08-24T16:17:51.427Z,35.75
2022-08-24T16:20:32.232Z,35.72
2022-08-24T16:23:08.381Z,35.79
2022-08-24T16:25:47.979Z,35.81
2022-08-24T16:28:23.661Z,36.01
2022-08-24T16:31:00.789Z,35.91
2022-08-24T16:33:29.614Z,36.01
2022-08-24T16:35:57.060Z,36.12
2022-08-24T16:38:24.819Z,36.05
2022-08-24T16:40:52.927Z,37.02
2022-08-24T16:43:19.595Z,36.58
2022-08-24T16:45:46.970Z,37.00
2022-08-24T16:48:14.127Z,37.35
2022-08-24T16:50:40.674Z,37.11
2022-08-24T16:53:07.244Z,37.12
2022-08-24T16:55:33.807Z,37.03
2022-08-24T16:58:01.539Z,37.62
2022-08-24T17:00:28.585Z,37.88
2022-08-24T17:02:55.267Z,37.77
2022-08-24T17:05:22.045Z,38.17
2022-08-24T17:07:50.180Z,38.50
2022-08-24T17:10:19.117Z,38.81
2022-08-24T17:12:48.669Z,39.05
2022-08-24T17:15:18.551Z,39.36
2022-08-24T17:18:02.091Z,39.09
2022-08-24T17:20:29.658Z,39.69
2022-08-24T17:22:57.760Z,39.67
2022-08-24T17:25:26.277Z,39.41
2022-08-24T17:27:54.632Z,40.06
2022-08-24T17:30:24.026Z,39.91
2022-08-24T17:32:52.457Z,40.04
2022-08-24T17:35:21.201Z,39.71
2022-08-24T17:37:49.260Z,40.30
2022-08-24T17:40:19.585Z,40.35
2022-08-24T17:42:51.198Z,39.81
2022-08-24T17:45:20.100Z,39.72
2022-08-24T17:47:46.819Z,39.69
2022-08-24T17:50:14.995Z,39.33
2022-08-24T17:52:42.981Z,39.46
2022-08-24T17:55:11.485Z,40.07
2022-08-24T17:57:39.572Z,39.71
2022-08-24T18:00:11.916Z,40.02
2022-08-24T18:02:39.527Z,39.99
2022-08-24T18:05:08.488Z,40.07
2022-08-24T18:07:52.578Z,39.94
2022-08-24T18:10:28.918Z,39.83
2022-08-24T18:13:00.230Z,39.77
2022-08-24T18:15:33.625Z,39.85
2022-08-24T18:18:06.439Z,39.79
2022-08-24T18:20:38.179Z,39.54
2022-08-24T18:23:05.089Z,40.45
2022-08-24T18:25:45.858Z,39.98
2022-08-24T18:28:14.698Z,40.62
2022-08-24T18:30:41.848Z,40.97
2022-08-24T18:33:10.690Z,40.35
2022-08-24T18:35:37.332Z,40.85
2022-08-24T18:38:04.171Z,40.89
2022-08-24T18:40:33.397Z,41.17
2022-08-24T18:43:02.745Z,41.22
2022-08-24T18:45:31.811Z,41.49
2022-08-24T18:47:58.706Z,41.22
2022-08-24T18:50:28.712Z,41.63
2022-08-24T18:52:56.324Z,40.99
2022-08-24T18:55:23.959Z,41.83
2022-08-24T18:57:51.796Z,42.06
2022-08-24T19:00:19.349Z,42.26
2022-08-24T19:02:47.256Z,41.89
2022-08-24T19:05:25.086Z,42.33
2022-08-24T19:07:54.302Z,42.44
2022-08-24T19:10:28.724Z,42.25
2022-08-24T19:13:00.015Z,42.33
2022-08-24T19:15:32.080Z,42.08
2022-08-24T19:18:09.534Z,42.59
2022-08-24T19:20:37.104Z,42.51
2022-08-24T19:23:13.583Z,42.58
2022-08-24T19:25:43.514Z,42.42
2022-08-24T19:28:10.394Z,42.41
2022-08-24T19:30:38.027Z,42.79
2022-08-24T19:33:10.414Z,42.86
2022-08-24T19:35:40.069Z,43.47
2022-08-24T19:38:06.719Z,42.73
2022-08-24T19:40:33.503Z,43.49
2022-08-24T19:43:02.370Z,43.30
2022-08-24T19:45:48.044Z,43.80
2022-08-24T19:48:14.881Z,43.33
2022-08-24T19:50:41.599Z,43.65
2022-08-24T19:53:10.510Z,44.10
2022-08-24T19:55:37.213Z,44.30
2022-08-24T19:58:35.792Z,44.12
2022-08-24T20:01:08.117Z,44.71
2022-08-24T20:03:34.802Z,44.67
2022-08-24T20:06:01.770Z,44.67
2022-08-24T20:08:28.359Z,44.69
2022-08-24T20:10:58.889Z,44.80
2022-08-24T20:13:25.690Z,45.39
2022-08-24T20:15:52.692Z,45.87
2022-08-24T20:18:24.270Z,46.07
2022-08-24T20:20:51.894Z,46.16
2022-08-24T20:23:18.504Z,46.26
2022-08-24T20:25:45.217Z,46.28
2022-08-24T20:28:32.665Z,46.69
2022-08-24T20:31:01.761Z,46.63
2022-08-24T20:33:28.900Z,46.80
2022-08-24T20:35:56.328Z,46.89
2022-08-24T20:38:23.863Z,47.38
2022-08-24T20:40:51.288Z,47.17
2022-08-24T20:43:18.752Z,47.03
2022-08-24T20:45:45.551Z,46.89
2022-08-24T20:48:13.579Z,46.70
2022-08-24T20:50:44.454Z,47.37
2022-08-24T20:53:11.691Z,46.85
2022-08-24T20:55:40.400Z,47.80
2022-08-24T20:58:07.622Z,48.00
2022-08-24T21:00:34.427Z,47.98
2022-08-24T21:03:01.209Z,48.33
2022-08-24T21:05:28.203Z,47.96
2022-08-24T21:07:57.639Z,47.48
2022-08-24T21:10:26.501Z,47.99
2022-08-24T21:12:54.634Z,48.71
2022-08-24T21:15:23.561Z,48.57
2022-08-24T21:17:50.660Z,48.59
2022-08-24T21:20:17.933Z,49.47
2022-08-24T21:22:46.115Z,48.99
2022-08-24T21:25:14.362Z,49.04
2022-08-24T21:27:44.052Z,49.40
2022-08-24T21:30:14.197Z,49.63
2022-08-24T21:32:59.564Z,48.71
2022-08-24T21:35:26.820Z,49.40
2022-08-24T21:37:54.024Z,49.28
2022-08-24T21:40:21.892Z,48.96
2022-08-24T21:42:49.178Z,48.88
2022-08-24T21:45:16.188Z,48.59
2022-08-24T21:47:42.995Z,48.73
2022-08-24T21:50:10.428Z,48.92
2022-08-24T21:52:37.289Z,49.68
2022-08-24T21:55:05.923Z,49.29
2022-08-24T21:57:32.704Z,50.01
2022-08-24T21:59:59.486Z,49.97
2022-08-24T22:02:29.231Z,49.66
2022-08-24T22:04:56.714Z,49.88
2022-08-24T22:07:25.316Z,50.01
2022-08-24T22:09:51.970Z,50.44
2022-08-24T22:12:18.819Z,51.37
2022-08-24T22:14:45.418Z,50.71
2022-08-24T22:17:12.050Z,50.78
2022-08-24T22:19:39.156Z,51.25
2022-08-24T22:22:06.091Z,50.68
2022-08-24T22:24:32.947Z,51.35
2022-08-24T22:26:59.549Z,51.52
2022-08-24T22:29:26.233Z,51.93
2022-08-24T22:31:52.799Z,51.27
2022-08-24T22:34:20.904Z,51.86
2022-08-24T22:36:48.860Z,51.12
2022-08-24T22:39:16.555Z,51.29
2022-08-24T22:41:43.872Z,51.28
2022-08-24T22:44:19.720Z,51.62
2022-08-24T22:46:58.007Z,51.55
2022-08-24T22:49:29.233Z,52.79
2022-08-24T22:51:56.089Z,52.98
2022-08-24T22:54:23.930Z,53.05
2022-08-24T22:56:53.334Z,52.36
2022-08-24T22:59:24.005Z,53.02
2022-08-24T23:01:52.402Z,53.31
2022-08-24T23:04:23.984Z,53.06
2022-08-24T23:06:50.936Z,53.25
2022-08-24T23:09:18.014Z,53.75
2022-08-24T23:11:45.117Z,54.30
2022-08-24T23:14:13.332Z,54.52
2022-08-24T23:16:44.576Z,55.32
2022-08-24T23:19:29.730Z,55.22
2022-08-24T23:21:56.260Z,55.70
2022-08-24T23:24:22.799Z,55.13
2022-08-24T23:26:49.884Z,55.86
2022-08-24T23:29:17.711Z,56.50
2022-08-24T23:31:46.024Z,56.52
2022-08-24T23:34:13.663Z,56.71
2022-08-24T23:36:41.222Z,56.85
2022-08-24T23:39:08.941Z,56.72
2022-08-24T23:41:38.342Z,56.28
2022-08-24T23:44:09.699Z,56.41
2022-08-24T23:46:37.773Z,56.05
2022-08-24T23:49:05.106Z,56.55
2022-08-24T23:51:31.875Z,57.23
2022-08-24T23:53:58.966Z,57.16
2022-08-24T23:56:33.988Z,57.78
2022-08-24T23:59:05.937Z,57.57
